TimeEST,TemperatureF,Dew PointF,Humidity,Sea Level PressureIn,VisibilityMPH,Wind Direction,Wind SpeedMPH,Gust SpeedMPH,PrecipitationIn,Events,Conditions,WindDirDegrees,DateUTC
12:53 AM,21.9,16.0,78,30.20,9.0,West,15.0,23.0,N/A,,Overcast,270,2013-01-14 05:53:00
2:53 AM,19.9,15.1,81,30.28,9.0,West,12.7,-,N/A,,Overcast,260,2013-01-14 07:53:00
3:53 AM,19.0,14.0,81,30.31,9.0,West,12.7,-,N/A,,Overcast,260,2013-01-14 08:53:00
4:53 AM,19.0,12.9,77,30.33,9.0,West,12.7,-,N/A,,Overcast,260,2013-01-14 09:53:00
5:53 AM,19.0,12.9,77,30.34,10.0,West,10.4,-,N/A,,Overcast,260,2013-01-14 10:53:00
6:53 AM,19.0,14.0,81,30.36,9.0,West,9.2,-,N/A,,Overcast,280,2013-01-14 11:53:00
7:53 AM,19.0,14.0,81,30.39,10.0,West,9.2,-,N/A,,Overcast,280,2013-01-14 12:53:00
8:53 AM,19.9,14.0,78,30.41,8.0,WNW,6.9,-,N/A,,Overcast,290,2013-01-14 13:53:00
9:53 AM,19.9,15.1,81,30.43,5.0,WNW,8.1,-,N/A,,Haze,300,2013-01-14 14:53:00
10:53 AM,21.9,15.1,75,30.42,6.0,NNW,8.1,-,N/A,,Haze,340,2013-01-14 15:53:00
11:53 AM,23.0,16.0,74,30.41,9.0,North,9.2,-,N/A,,Overcast,350,2013-01-14 16:53:00
12:53 PM,23.0,15.1,72,30.40,10.0,WNW,6.9,-,N/A,,Overcast,300,2013-01-14 17:53:00
2:53 PM,24.1,16.0,71,30.43,10.0,WNW,6.9,-,N/A,,Overcast,290,2013-01-14 19:53:00
4:53 PM,24.1,16.0,71,30.47,10.0,West,5.8,-,N/A,,Overcast,260,2013-01-14 21:53:00
5:53 PM,24.1,16.0,71,30.46,10.0,WSW,3.5,-,N/A,,Overcast,250,2013-01-14 22:53:00
6:53 PM,24.1,17.1,75,30.45,10.0,West,3.5,-,N/A,,Overcast,270,2013-01-14 23:53:00
7:53 PM,24.1,15.1,69,30.44,10.0,NNW,4.6,-,N/A,,Overcast,340,2013-01-15 00:53:00
8:27 PM,21.2,14.0,74,30.39,10.0,NW,4.6,-,N/A,,Scattered Clouds,320,2013-01-15 01:27:00
8:53 PM,19.0,12.9,77,30.43,10.0,NW,5.8,-,N/A,,Clear,320,2013-01-15 01:53:00
9:53 PM,19.0,12.0,74,30.43,10.0,NW,3.5,-,N/A,,Clear,320,2013-01-15 02:53:00
10:53 PM,19.0,12.0,74,30.42,10.0,Calm,Calm,-,N/A,,Clear,0,2013-01-15 03:53:00
11:53 PM,18.0,12.9,81,30.43,10.0,Calm,Calm,-,N/A,,Clear,0,2013-01-15 04:53:00